Weather at Mackinac Island Airport

Public forecast

Using degrees Fahrenheit for public forecast. Weather courtesy of forecast.io.

Current aviation weather report (METAR) for Mackinac Island Airport

Retrieved 2021/10/24 09:35 UTC (0 seconds ago):

KMCD 240935Z AUTO 33004KT 10SM SCT050 05/02 A2998 RMK AO2 T00510023

Closest aviation forecast (TAF) to Mackinac Island Airport

Closest forecast is Pellston Regional Airport of Emmet County Airport, 18.9 nm (35.0 km) SSW. Retrieved 2021/10/24 06:28 UTC (3 hours ago):

TAF KPLN 240526Z 2406/2506 VRB03KT P6SM VCSH BKN040 FM241500 34007KT P6SM BKN050 FM250000 03007KT P6SM SCT050 BKN100